Time;durP1;ratioP1;P1;durP2;ratioP2;P2;SDS_P1;SDS_P2;PMS_P1;PMS_P2;Temp;Humidity;BMP_temperature;BMP_pressure;BME280_temperature;BME280_humidity;BME280_pressure;Samples;Min_cycle;Max_cycle;Signal;HPM_P1;HPM_P2
2021/11/19 00:01:30;;;;;;;32.38;14.25;;;11.50;96.40;;;;;;5055522;28;20021;-75
2021/11/19 00:03:56;;;;;;;26.37;13.97;;;11.50;96.50;;;;;;5055505;28;20017;-75
2021/11/19 00:06:21;;;;;;;26.27;15.23;;;11.50;96.80;;;;;;5055644;28;20805;-76
2021/11/19 00:08:50;;;;;;;34.40;15.83;;;11.50;96.70;;;;;;5055501;28;20386;-75
2021/11/19 00:11:18;;;;;;;34.80;16.10;;;11.40;96.70;;;;;;5056717;28;20171;-75
2021/11/19 00:13:44;;;;;;;31.90;14.68;;;11.40;96.80;;;;;;5056537;28;20033;-75
2021/11/19 00:16:11;;;;;;;33.10;16.57;;;11.50;96.90;;;;;;5056625;28;20540;-75
2021/11/19 00:18:37;;;;;;;31.75;16.17;;;11.40;96.90;;;;;;5056679;28;20555;-75
2021/11/19 00:21:03;;;;;;;30.92;15.82;;;11.40;97.20;;;;;;5055213;28;20028;-75
2021/11/19 00:23:28;;;;;;;39.60;16.90;;;11.40;97.00;;;;;;5038659;28;20029;-75
2021/11/19 00:25:54;;;;;;;32.60;15.67;;;11.40;96.90;;;;;;5038657;28;20025;-75
2021/11/19 00:28:21;;;;;;;31.93;14.80;;;11.40;96.90;;;;;;5056334;28;20017;-75
2021/11/19 00:30:47;;;;;;;36.30;16.38;;;11.40;97.00;;;;;;5055051;28;20028;-75
2021/11/19 00:33:14;;;;;;;32.13;16.63;;;11.40;97.00;;;;;;5056426;28;20064;-75
2021/11/19 00:35:43;;;;;;;32.60;16.00;;;11.40;97.00;;;;;;5056103;28;20473;-75
2021/11/19 00:38:10;;;;;;;39.88;14.40;;;11.40;97.00;;;;;;5054969;28;20370;-75
2021/11/19 00:40:49;;;;;;;28.50;14.53;;;11.40;97.00;;;;;;5056129;28;20086;-75
2021/11/19 00:43:16;;;;;;;39.25;18.48;;;11.40;97.10;;;;;;5050962;28;20045;-75
2021/11/19 00:45:42;;;;;;;34.20;17.33;;;11.40;97.10;;;;;;5056215;28;20086;-75
2021/11/19 00:48:09;;;;;;;43.78;18.05;;;11.50;97.20;;;;;;5056154;28;20032;-75
2021/11/19 00:50:50;;;;;;;33.95;17.13;;;11.40;97.20;;;;;;5055017;28;20389;-76
2021/11/19 00:53:15;;;;;;;33.63;16.30;;;11.40;97.20;;;;;;5055187;28;20036;-75
2021/11/19 00:55:42;;;;;;;31.07;17.77;;;11.40;97.20;;;;;;5055062;28;20128;-75
2021/11/19 00:58:08;;;;;;;38.27;17.27;;;11.40;97.30;;;;;;5056407;28;20087;-76
2021/11/19 01:00:41;;;;;;;37.63;16.20;;;11.40;97.30;;;;;;5052941;28;20029;-76
2021/11/19 01:03:07;;;;;;;35.20;17.40;;;11.40;97.30;;;;;;5055860;28;20082;-75
2021/11/19 01:05:33;;;;;;;37.58;19.00;;;11.40;97.30;;;;;;5054325;28;20033;-76
2021/11/19 01:07:58;;;;;;;38.08;18.85;;;11.40;97.60;;;;;;5054752;28;20484;-76
2021/11/19 01:10:27;;;;;;;40.50;19.90;;;11.50;97.40;;;;;;5053954;28;20514;-76
2021/11/19 01:12:53;;;;;;;35.72;18.48;;;11.50;97.50;;;;;;5055706;28;20431;-76
2021/11/19 01:15:36;;;;;;;36.45;18.83;;;11.40;97.50;;;;;;5056071;28;20100;-75
2021/11/19 01:18:28;;;;;;;32.70;17.95;;;11.50;97.60;;;;;;5055700;28;20033;-75
2021/11/19 01:21:22;;;;;;;29.25;16.17;;;11.50;97.60;;;;;;5055612;28;20401;-75
2021/11/19 01:23:48;;;;;;;34.80;17.63;;;11.50;97.50;;;;;;5054990;28;20045;-75
2021/11/19 01:26:27;;;;;;;33.95;19.35;;;11.50;97.60;;;;;;5055683;28;20024;-75
2021/11/19 01:28:56;;;;;;;36.92;17.85;;;11.50;97.80;;;;;;5055647;28;20394;-75
2021/11/19 01:31:26;;;;;;;35.50;19.57;;;11.50;97.60;;;;;;5055790;28;20036;-75
2021/11/19 01:33:52;;;;;;;37.22;19.02;;;11.50;97.60;;;;;;5055672;28;20425;-75
2021/11/19 01:36:19;;;;;;;37.53;19.52;;;11.60;97.60;;;;;;5055199;28;20076;-75
2021/11/19 01:38:46;;;;;;;31.35;17.70;;;11.60;97.60;;;;;;5055443;28;20112;-75
2021/11/19 01:41:19;;;;;;;41.17;20.88;;;11.60;97.60;;;;;;5037744;28;20413;-75
2021/11/19 01:43:46;;;;;;;34.08;19.23;;;11.50;97.50;;;;;;5055445;28;20035;-75
2021/11/19 01:46:16;;;;;;;33.67;18.35;;;11.60;97.60;;;;;;5055062;28;20032;-75
2021/11/19 01:48:44;;;;;;;34.88;19.27;;;11.60;97.60;;;;;;5055089;28;20029;-75
2021/11/19 01:51:25;;;;;;;42.80;20.08;;;11.60;97.60;;;;;;5053876;28;20489;-75
2021/11/19 01:53:55;;;;;;;31.30;18.48;;;11.60;97.60;;;;;;5050804;28;20025;-76
2021/11/19 01:56:31;;;;;;;42.60;20.23;;;11.60;97.70;;;;;;5049678;28;20060;-76
2021/11/19 01:59:20;;;;;;;39.97;22.02;;;11.60;97.80;;;;;;5053183;28;20021;-76
2021/11/19 02:01:57;;;;;;;43.22;23.40;;;11.60;97.80;;;;;;5054739;28;20021;-76
2021/11/19 02:04:31;;;;;;;43.70;22.83;;;11.50;97.80;;;;;;5054823;28;20021;-76
2021/11/19 02:07:04;;;;;;;43.55;22.50;;;11.60;97.90;;;;;;5054517;28;20049;-76
2021/11/19 02:10:02;;;;;;;42.13;23.02;;;11.60;97.90;;;;;;5054340;28;20043;-75
2021/11/19 02:12:44;;;;;;;42.00;21.80;;;11.60;97.90;;;;;;5052275;28;20060;-75
2021/11/19 02:15:12;;;;;;;38.58;21.52;;;11.60;97.90;;;;;;5054583;28;20017;-75
2021/11/19 02:17:40;;;;;;;35.55;21.33;;;11.50;97.90;;;;;;5053416;28;20033;-75
2021/11/19 02:20:20;;;;;;;41.92;22.40;;;11.60;98.00;;;;;;5054312;28;20025;-75
2021/11/19 02:22:56;;;;;;;39.08;22.90;;;11.60;98.00;;;;;;5053201;28;20028;-75
2021/11/19 02:25:38;;;;;;;40.28;22.15;;;11.60;98.00;;;;;;5054169;28;20025;-75
2021/11/19 02:28:09;;;;;;;42.75;24.27;;;11.60;98.00;;;;;;5052916;28;20020;-75
2021/11/19 02:30:55;;;;;;;47.05;24.17;;;11.60;98.10;;;;;;5052788;28;20107;-75
2021/11/19 02:33:22;;;;;;;46.92;26.70;;;11.60;98.20;;;;;;5053906;28;20492;-75
2021/11/19 02:36:04;;;;;;;44.50;25.80;;;11.60;98.30;;;;;;5053995;28;20434;-75
2021/11/19 02:38:41;;;;;;;40.05;22.42;;;11.60;98.30;;;;;;5052773;28;20469;-76
2021/11/19 02:41:08;;;;;;;39.30;24.58;;;11.50;98.20;;;;;;5052668;28;20025;-76
2021/11/19 02:44:05;;;;;;;44.70;25.38;;;11.60;98.30;;;;;;5052589;28;20033;-75
2021/11/19 02:46:34;;;;;;;42.17;24.33;;;11.50;98.30;;;;;;5084034;28;20086;-75
2021/11/19 02:49:00;;;;;;;48.47;25.50;;;11.60;98.30;;;;;;5053677;28;20461;-75
2021/11/19 02:51:28;;;;;;;39.42;24.10;;;11.60;98.40;;;;;;5053885;28;20029;-75
2021/11/19 02:53:55;;;;;;;45.03;25.50;;;11.60;98.40;;;;;;5053416;28;20025;-76
2021/11/19 02:56:22;;;;;;;44.47;25.38;;;11.60;98.60;;;;;;5052115;28;20025;-75
2021/11/19 02:58:52;;;;;;;46.95;25.15;;;11.60;98.50;;;;;;5053451;28;20039;-75
2021/11/19 03:01:21;;;;;;;39.58;23.48;;;11.60;98.50;;;;;;5053614;28;20021;-76
2021/11/19 03:03:50;;;;;;;48.10;25.10;;;11.60;98.50;;;;;;5053350;28;20057;-76
2021/11/19 03:06:16;;;;;;;43.70;26.10;;;11.60;98.70;;;;;;5053404;28;20033;-75
2021/11/19 03:08:43;;;;;;;43.17;25.00;;;11.60;98.50;;;;;;5053500;28;20033;-75
2021/11/19 03:11:10;;;;;;;43.67;25.25;;;11.60;98.50;;;;;;5053327;28;20381;-75
2021/11/19 03:13:38;;;;;;;44.50;25.10;;;11.60;98.50;;;;;;5053396;28;20031;-76
2021/11/19 03:16:06;;;;;;;41.60;25.98;;;11.60;98.40;;;;;;5052220;28;20032;-76
2021/11/19 03:18:31;;;;;;;45.67;25.70;;;11.60;98.40;;;;;;5035708;28;20477;-76
2021/11/19 03:21:01;;;;;;;46.17;27.27;;;11.60;98.40;;;;;;5052031;28;20041;-76
2021/11/19 03:23:31;;;;;;;46.72;28.50;;;11.60;98.40;;;;;;5053119;28;20460;-76
2021/11/19 03:25:57;;;;;;;50.90;30.00;;;11.60;98.50;;;;;;5053280;28;20056;-76
2021/11/19 03:28:25;;;;;;;53.00;31.98;;;11.60;98.50;;;;;;5053626;28;20431;-76
2021/11/19 03:30:53;;;;;;;49.35;30.38;;;11.60;98.60;;;;;;5051750;28;20051;-76
2021/11/19 03:33:23;;;;;;;49.72;29.08;;;11.60;98.60;;;;;;5052714;28;20098;-76
2021/11/19 03:35:50;;;;;;;53.15;30.55;;;11.60;98.60;;;;;;5053039;28;20028;-76
2021/11/19 03:38:16;;;;;;;54.83;30.95;;;11.60;98.60;;;;;;5052849;28;20037;-77
2021/11/19 03:40:44;;;;;;;52.45;31.73;;;11.60;98.60;;;;;;5053100;28;20035;-76
2021/11/19 03:43:14;;;;;;;49.50;32.08;;;11.60;99.00;;;;;;5052838;28;20397;-76
2021/11/19 03:45:45;;;;;;;53.60;32.67;;;11.60;98.70;;;;;;5051748;28;20021;-76
2021/11/19 03:48:11;;;;;;;53.95;33.03;;;11.60;98.80;;;;;;5052983;28;20475;-76
2021/11/19 03:50:43;;;;;;;53.42;34.45;;;11.50;98.80;;;;;;5051579;28;20025;-76
2021/11/19 03:53:11;;;;;;;57.35;33.38;;;11.50;98.90;;;;;;5052841;28;20037;-76
2021/11/19 03:55:40;;;;;;;54.80;32.40;;;11.60;99.00;;;;;;5053023;28;20111;-76
2021/11/19 03:58:06;;;;;;;56.70;32.45;;;11.60;99.00;;;;;;5053007;28;20040;-76
2021/11/19 04:00:38;;;;;;;56.20;33.72;;;11.60;99.00;;;;;;5052742;28;20041;-76
2021/11/19 04:03:05;;;;;;;60.78;37.22;;;11.70;99.10;;;;;;5052780;28;20037;-75
2021/11/19 04:05:31;;;;;;;55.47;33.53;;;11.60;99.10;;;;;;5052825;28;20021;-75
2021/11/19 04:07:57;;;;;;;62.88;34.85;;;11.60;99.10;;;;;;5051765;28;20469;-75
2021/11/19 04:10:23;;;;;;;60.67;34.92;;;11.60;99.10;;;;;;5034813;28;20075;-76
2021/11/19 04:12:50;;;;;;;57.08;33.95;;;11.60;99.10;;;;;;5052724;28;20078;-75
2021/11/19 04:15:20;;;;;;;55.25;32.85;;;11.70;99.20;;;;;;5034951;28;20489;-76
2021/11/19 04:17:46;;;;;;;49.72;29.95;;;11.60;99.20;;;;;;5052705;28;20033;-76
2021/11/19 04:20:14;;;;;;;58.30;34.63;;;11.60;99.10;;;;;;5052738;28;20057;-76
2021/11/19 04:22:42;;;;;;;58.67;34.83;;;11.60;99.30;;;;;;5052528;28;20029;-76
2021/11/19 04:25:10;;;;;;;62.35;36.80;;;11.60;99.20;;;;;;5035198;28;20086;-76
2021/11/19 04:27:37;;;;;;;54.08;31.38;;;11.60;99.30;;;;;;5051360;28;20028;-76
2021/11/19 04:30:06;;;;;;;61.15;35.33;;;11.60;99.30;;;;;;5051332;28;20129;-76
2021/11/19 04:32:32;;;;;;;50.60;30.55;;;11.60;99.30;;;;;;5051264;28;20052;-77
2021/11/19 04:34:58;;;;;;;48.97;31.40;;;11.60;99.30;;;;;;5051331;28;20029;-76
2021/11/19 04:37:25;;;;;;;53.35;32.08;;;11.70;99.60;;;;;;5051052;28;20060;-76
2021/11/19 04:39:51;;;;;;;51.72;31.35;;;11.60;99.30;;;;;;5051197;28;20078;-76
2021/11/19 04:42:17;;;;;;;49.88;31.63;;;11.70;99.30;;;;;;5051271;28;20112;-76
2021/11/19 04:44:43;;;;;;;50.05;32.42;;;11.70;99.30;;;;;;5052056;28;20111;-76
2021/11/19 04:47:09;;;;;;;52.90;31.27;;;11.70;99.30;;;;;;5056115;28;20163;-76
2021/11/19 04:49:35;;;;;;;52.55;30.95;;;11.70;99.30;;;;;;5055989;28;20385;-76
2021/11/19 04:52:03;;;;;;;49.72;29.67;;;11.70;99.30;;;;;;5055010;28;20025;-76
2021/11/19 04:54:29;;;;;;;57.88;31.80;;;11.70;99.30;;;;;;5055933;28;20028;-76
2021/11/19 04:56:55;;;;;;;57.65;32.05;;;11.70;99.30;;;;;;5054724;28;20040;-76
2021/11/19 04:59:23;;;;;;;52.40;31.48;;;11.70;99.40;;;;;;5054372;28;20120;-76
2021/11/19 05:01:52;;;;;;;53.17;33.63;;;11.70;99.50;;;;;;5055688;28;20021;-76
2021/11/19 05:04:18;;;;;;;59.75;33.80;;;11.70;99.60;;;;;;5055702;28;20540;-76
2021/11/19 05:06:44;;;;;;;52.08;32.25;;;11.70;99.60;;;;;;5055722;28;20064;-76
2021/11/19 05:09:11;;;;;;;52.67;32.40;;;11.60;99.60;;;;;;5055689;28;20035;-76
2021/11/19 05:11:51;;;;;;;57.05;32.58;;;11.60;99.60;;;;;;5037614;28;20120;-76
2021/11/19 05:14:18;;;;;;;57.25;33.97;;;11.70;99.60;;;;;;5054578;28;20404;-76
2021/11/19 05:16:43;;;;;;;56.58;33.40;;;11.60;99.70;;;;;;5055548;28;20059;-76
2021/11/19 05:19:09;;;;;;;57.72;32.65;;;11.60;99.70;;;;;;5054180;28;20204;-76
2021/11/19 05:21:35;;;;;;;56.30;32.13;;;11.60;99.80;;;;;;5054111;28;20465;-76
2021/11/19 05:24:05;;;;;;;54.97;32.22;;;11.70;99.90;;;;;;5055222;28;20044;-76
2021/11/19 05:26:32;;;;;;;51.95;30.90;;;11.60;99.80;;;;;;5054014;28;20530;-76
2021/11/19 05:28:58;;;;;;;52.90;32.08;;;11.70;99.80;;;;;;5055222;28;20033;-76
2021/11/19 05:31:24;;;;;;;57.17;31.98;;;11.70;99.80;;;;;;5053908;28;20024;-76
2021/11/19 05:33:50;;;;;;;51.10;30.67;;;11.70;99.90;;;;;;5055106;28;20040;-76
2021/11/19 05:36:17;;;;;;;58.03;31.25;;;11.60;99.90;;;;;;5054823;28;20485;-75
2021/11/19 05:38:43;;;;;;;50.35;30.38;;;11.60;99.90;;;;;;5053802;28;20123;-76
2021/11/19 05:41:12;;;;;;;54.70;32.08;;;11.70;99.90;;;;;;5053759;28;20116;-76
2021/11/19 05:43:40;;;;;;;57.33;32.05;;;11.70;99.90;;;;;;5054916;28;20464;-76
2021/11/19 05:46:07;;;;;;;50.17;30.30;;;11.60;99.90;;;;;;5054944;28;20025;-75
2021/11/19 05:48:33;;;;;;;54.85;31.65;;;11.60;99.90;;;;;;5054866;28;20029;-75
2021/11/19 05:51:00;;;;;;;51.22;31.73;;;11.80;99.90;;;;;;5054778;28;20466;-76
2021/11/19 05:53:26;;;;;;;54.67;34.58;;;11.70;99.90;;;;;;5054853;28;20491;-76
2021/11/19 05:55:52;;;;;;;58.83;33.75;;;11.70;99.90;;;;;;5054564;28;20113;-76
2021/11/19 05:58:19;;;;;;;62.42;33.97;;;11.70;99.90;;;;;;5054738;28;20517;-76
2021/11/19 06:00:50;;;;;;;57.90;33.33;;;11.70;99.90;;;;;;5054478;28;20033;-76
2021/11/19 06:03:16;;;;;;;65.25;34.25;;;11.70;99.90;;;;;;5054413;28;20039;-76
2021/11/19 06:05:42;;;;;;;55.92;33.03;;;11.70;99.90;;;;;;5054633;28;20439;-77
2021/11/19 06:08:07;;;;;;;57.25;33.35;;;11.60;99.90;;;;;;5053101;28;20351;-76
2021/11/19 06:10:41;;;;;;;52.83;30.75;;;11.70;99.90;;;;;;5053374;28;20029;-76
2021/11/19 06:13:09;;;;;;;58.67;32.40;;;11.70;99.90;;;;;;5053130;28;20025;-76
2021/11/19 06:15:41;;;;;;;48.25;29.17;;;11.60;99.90;;;;;;5054449;28;20466;-76
2021/11/19 06:18:10;;;;;;;52.13;32.05;;;11.60;99.90;;;;;;5052999;28;20503;-76
2021/11/19 06:20:46;;;;;;;51.22;29.92;;;11.70;99.90;;;;;;5053102;28;20021;-76
2021/11/19 06:23:32;;;;;;;47.85;29.00;;;11.60;99.90;;;;;;5052900;28;20347;-76
2021/11/19 06:26:00;;;;;;;49.92;28.45;;;11.70;99.90;;;;;;5054062;28;20543;-76
2021/11/19 06:28:39;;;;;;;53.20;31.92;;;11.70;99.90;;;;;;5054154;28;20036;-76
2021/11/19 06:31:04;;;;;;;44.45;28.00;;;11.70;99.90;;;;;;5054024;28;20048;-76
2021/11/19 06:33:30;;;;;;;57.25;30.73;;;11.70;99.90;;;;;;5054048;28;20477;-76
2021/11/19 06:35:56;;;;;;;57.72;32.53;;;11.70;99.90;;;;;;5052506;28;20473;-76
2021/11/19 06:38:22;;;;;;;47.35;28.88;;;11.70;99.90;;;;;;5052599;28;20056;-76
2021/11/19 06:40:48;;;;;;;52.92;30.60;;;11.70;99.90;;;;;;5050650;28;20044;-76
2021/11/19 06:43:14;;;;;;;44.58;27.65;;;11.70;99.90;;;;;;5042601;28;20037;-76
2021/11/19 06:45:40;;;;;;;48.20;30.30;;;11.70;99.90;;;;;;5032199;28;20030;-76
2021/11/19 06:48:06;;;;;;;53.33;29.38;;;11.80;99.90;;;;;;5032091;28;20119;-76
2021/11/19 06:50:35;;;;;;;55.10;31.27;;;11.80;99.90;;;;;;5036128;28;20140;-76
2021/11/19 06:53:02;;;;;;;52.95;31.38;;;11.80;99.90;;;;;;5040342;28;20034;-77
2021/11/19 06:55:28;;;;;;;47.42;29.00;;;11.80;99.90;;;;;;5018391;28;20041;-76
2021/11/19 06:57:54;;;;;;;47.55;29.17;;;11.80;99.90;;;;;;5040982;28;20083;-76
2021/11/19 07:00:28;;;;;;;50.72;30.48;;;11.80;99.90;;;;;;5034754;28;20030;-77
2021/11/19 07:02:55;;;;;;;51.08;30.00;;;11.80;99.90;;;;;;5048913;28;20064;-77
2021/11/19 07:05:21;;;;;;;53.22;32.17;;;11.80;99.90;;;;;;5051150;28;20537;-77
2021/11/19 07:07:46;;;;;;;46.85;30.70;;;11.70;99.90;;;;;;5033760;28;20179;-77
2021/11/19 07:10:14;;;;;;;55.17;30.58;;;11.80;99.90;;;;;;5053278;28;20382;-76
2021/11/19 07:12:40;;;;;;;47.42;29.58;;;11.80;99.90;;;;;;5053394;28;20036;-77
2021/11/19 07:15:08;;;;;;;49.90;30.73;;;11.80;99.90;;;;;;5053266;28;20029;-77
2021/11/19 07:17:34;;;;;;;47.28;30.60;;;11.80;99.90;;;;;;5052751;28;20025;-77
2021/11/19 07:20:00;;;;;;;43.95;28.00;;;11.80;99.90;;;;;;5052587;28;20029;-77
2021/11/19 07:22:26;;;;;;;49.50;30.15;;;11.80;99.90;;;;;;5051898;28;20068;-77
2021/11/19 07:24:52;;;;;;;47.97;29.05;;;11.90;99.90;;;;;;5052283;28;20067;-77
2021/11/19 07:27:20;;;;;;;50.42;30.48;;;12.00;99.90;;;;;;5034584;28;20020;-77
2021/11/19 07:29:46;;;;;;;49.08;29.67;;;11.90;99.90;;;;;;5051818;28;20084;-77
2021/11/19 07:32:12;;;;;;;46.85;29.33;;;12.00;99.90;;;;;;5050574;28;20452;-77
2021/11/19 07:34:38;;;;;;;50.75;30.33;;;11.80;99.90;;;;;;5051401;28;20063;-77
2021/11/19 07:37:04;;;;;;;42.95;28.50;;;11.90;99.90;;;;;;5051901;28;20040;-77
2021/11/19 07:39:30;;;;;;;49.78;29.17;;;11.90;99.90;;;;;;5052476;28;20453;-77
2021/11/19 07:41:56;;;;;;;48.92;29.45;;;11.90;99.90;;;;;;5051309;28;20577;-77
2021/11/19 07:44:22;;;;;;;45.92;28.73;;;11.90;99.90;;;;;;5051469;28;20039;-77
2021/11/19 07:46:48;;;;;;;45.50;29.15;;;11.90;99.90;;;;;;5051483;28;20021;-77
2021/11/19 07:49:14;;;;;;;55.40;30.23;;;11.90;99.90;;;;;;5052466;28;20032;-77
2021/11/19 07:51:44;;;;;;;48.22;29.60;;;11.90;99.90;;;;;;5052459;28;20074;-77
2021/11/19 07:54:10;;;;;;;48.42;29.88;;;12.00;99.90;;;;;;5052368;28;20054;-77
2021/11/19 07:56:37;;;;;;;48.33;28.35;;;12.00;99.90;;;;;;5051311;28;20033;-77
2021/11/19 07:59:07;;;;;;;46.00;29.05;;;12.00;99.90;;;;;;5052510;28;20025;-77
2021/11/19 08:01:34;;;;;;;41.85;26.92;;;12.00;99.90;;;;;;5051406;28;20021;-77
2021/11/19 08:04:00;;;;;;;43.67;27.23;;;12.00;99.90;;;;;;5051730;28;20029;-77
2021/11/19 08:06:27;;;;;;;45.33;27.73;;;12.00;99.90;;;;;;5051470;28;20024;-78
2021/11/19 08:08:54;;;;;;;42.85;27.55;;;12.00;99.90;;;;;;5052725;28;20021;-78
2021/11/19 08:11:20;;;;;;;47.67;28.15;;;12.00;99.90;;;;;;5052584;28;20021;-78
2021/11/19 08:13:46;;;;;;;41.17;26.75;;;12.00;99.90;;;;;;5051373;28;20033;-77
2021/11/19 08:16:13;;;;;;;41.08;26.42;;;12.10;99.90;;;;;;5052649;28;20056;-77
2021/11/19 08:18:54;;;;;;;42.10;25.70;;;12.10;99.90;;;;;;5053370;28;20036;-77
2021/11/19 08:21:21;;;;;;;41.05;25.95;;;12.10;99.90;;;;;;5055217;28;20021;-77
2021/11/19 08:23:51;;;;;;;39.88;25.50;;;12.10;99.90;;;;;;5055058;28;20036;-77
2021/11/19 08:26:22;;;;;;;36.97;24.98;;;12.20;99.90;;;;;;5056457;28;20021;-76
2021/11/19 08:28:48;;;;;;;41.60;24.70;;;12.20;99.90;;;;;;5056570;28;20179;-76
2021/11/19 08:31:16;;;;;;;43.55;25.55;;;12.10;99.90;;;;;;5056410;28;20103;-76
2021/11/19 08:33:42;;;;;;;35.92;24.70;;;12.20;99.90;;;;;;5056289;28;20067;-77
2021/11/19 08:36:09;;;;;;;41.53;24.55;;;12.30;99.90;;;;;;5054719;28;20028;-77
2021/11/19 08:38:35;;;;;;;35.88;24.55;;;12.20;99.90;;;;;;5038452;28;20029;-77
2021/11/19 08:41:02;;;;;;;30.77;21.17;;;12.30;99.90;;;;;;5055630;28;20028;-76
2021/11/19 08:43:31;;;;;;;35.20;22.35;;;12.30;99.90;;;;;;5055215;28;20124;-76
2021/11/19 08:46:00;;;;;;;40.22;24.38;;;12.30;99.90;;;;;;5054358;28;20066;-77
2021/11/19 08:48:27;;;;;;;40.53;26.02;;;12.30;99.90;;;;;;5054428;28;20227;-76
2021/11/19 08:50:54;;;;;;;35.40;23.40;;;12.30;99.90;;;;;;5054966;28;20021;-76
2021/11/19 08:53:21;;;;;;;34.03;23.33;;;12.40;99.90;;;;;;5055857;28;20033;-77
2021/11/19 08:55:53;;;;;;;39.83;25.10;;;12.40;99.90;;;;;;5055716;28;20107;-77
2021/11/19 08:58:32;;;;;;;42.05;26.38;;;12.40;99.90;;;;;;5055748;28;20460;-77
2021/11/19 09:00:59;;;;;;;41.83;25.27;;;12.40;99.90;;;;;;5054219;28;20112;-76
2021/11/19 09:03:26;;;;;;;33.15;23.38;;;12.40;99.80;;;;;;5055770;28;20033;-77
2021/11/19 09:05:52;;;;;;;35.90;23.75;;;12.50;99.80;;;;;;5054479;28;20112;-76
2021/11/19 09:08:20;;;;;;;38.17;23.80;;;12.50;99.80;;;;;;5055728;28;20052;-75
2021/11/19 09:10:47;;;;;;;40.42;23.60;;;12.50;99.80;;;;;;5055530;28;20059;-76
2021/11/19 09:13:13;;;;;;;33.30;22.02;;;12.50;99.80;;;;;;5055447;28;20082;-77
2021/11/19 09:15:39;;;;;;;36.90;22.38;;;12.50;99.70;;;;;;5055504;28;20028;-76
2021/11/19 09:18:26;;;;;;;35.65;22.63;;;12.50;99.70;;;;;;5054475;28;20036;-76
2021/11/19 09:21:13;;;;;;;33.38;22.00;;;12.60;99.70;;;;;;5055418;28;20029;-76
2021/11/19 09:24:09;;;;;;;32.65;20.92;;;12.60;99.70;;;;;;5055062;28;20359;-76
2021/11/19 09:26:52;;;;;;;32.58;20.80;;;12.60;99.70;;;;;;5053604;28;20025;-76
2021/11/19 09:29:25;;;;;;;34.58;20.35;;;12.60;99.70;;;;;;5055338;28;20108;-77
2021/11/19 09:31:53;;;;;;;31.88;21.25;;;12.70;99.60;;;;;;5053776;28;20017;-77
2021/11/19 09:34:20;;;;;;;28.48;19.33;;;12.70;99.60;;;;;;5054356;28;20459;-77
2021/11/19 09:36:46;;;;;;;28.63;18.02;;;12.70;99.60;;;;;;5053281;28;20041;-76
2021/11/19 09:39:14;;;;;;;32.47;19.05;;;12.80;99.50;;;;;;5053805;28;20507;-76
2021/11/19 09:41:45;;;;;;;31.33;19.33;;;12.80;99.50;;;;;;5053603;28;20404;-76
2021/11/19 09:44:56;;;;;;;28.17;17.88;;;12.80;99.50;;;;;;5044007;28;20489;-77
2021/11/19 09:48:09;;;;;;;28.02;19.10;;;12.90;99.50;;;;;;5046641;28;20029;-77
2021/11/19 09:50:57;;;;;;;27.35;17.00;;;13.00;99.40;;;;;;5053000;28;20483;-76
2021/11/19 09:53:56;;;;;;;27.05;17.17;;;13.00;99.30;;;;;;5053450;28;20025;-77
2021/11/19 09:56:57;;;;;;;27.67;18.50;;;13.10;99.30;;;;;;5055022;28;20025;-76
2021/11/19 09:59:44;;;;;;;25.40;17.58;;;13.10;99.20;;;;;;5053545;28;20389;-76
2021/11/19 10:02:55;;;;;;;23.52;15.10;;;13.20;99.10;;;;;;5054306;28;20029;-77
2021/11/19 10:05:36;;;;;;;25.73;15.15;;;13.20;99.10;;;;;;5053618;28;20068;-77
2021/11/19 10:08:10;;;;;;;24.52;14.57;;;13.30;98.90;;;;;;5054646;28;20060;-76
2021/11/19 10:10:59;;;;;;;19.83;14.20;;;13.30;98.80;;;;;;5053282;28;20025;-76
2021/11/19 10:13:30;;;;;;;19.75;13.57;;;13.40;98.80;;;;;;5054990;28;20051;-77
2021/11/19 10:16:02;;;;;;;20.50;13.05;;;13.50;98.80;;;;;;5053376;28;20028;-76
2021/11/19 10:18:31;;;;;;;18.55;11.88;;;13.50;98.60;;;;;;5054570;28;20032;-77
2021/11/19 10:21:13;;;;;;;24.20;12.55;;;13.60;98.50;;;;;;5053274;28;20029;-77
2021/11/19 10:23:48;;;;;;;17.88;11.52;;;13.60;98.20;;;;;;5054593;28;20112;-77
2021/11/19 10:26:34;;;;;;;22.77;11.98;;;13.60;98.20;;;;;;5054279;28;20051;-77
2021/11/19 10:29:20;;;;;;;18.67;11.82;;;13.70;98.10;;;;;;5054486;28;20025;-77
2021/11/19 10:31:48;;;;;;;17.80;10.20;;;13.70;98.00;;;;;;5052898;28;20035;-77
2021/11/19 10:34:24;;;;;;;18.80;11.80;;;13.70;98.10;;;;;;5054617;28;20496;-76
2021/11/19 10:37:14;;;;;;;20.30;11.43;;;13.80;97.80;;;;;;5053792;28;20151;-76
2021/11/19 10:40:02;;;;;;;20.15;10.73;;;13.90;97.90;;;;;;5052954;28;20110;-76
2021/11/19 10:43:02;;;;;;;18.00;9.95;;;13.90;97.80;;;;;;5052725;28;20086;-76
2021/11/19 10:45:46;;;;;;;14.85;9.38;;;14.00;97.80;;;;;;5052349;28;20029;-77
2021/11/19 10:48:30;;;;;;;;;;;14.10;97.70;;;;;;5054300;28;20029;-76
2021/11/19 10:51:13;;;;;;;18.98;9.25;;;14.20;97.40;;;;;;5086017;28;20006;-77
2021/11/19 10:54:17;;;;;;;15.43;8.18;;;14.20;97.30;;;;;;5053345;28;20113;-77
2021/11/19 10:57:05;;;;;;;16.02;8.93;;;14.40;97.50;;;;;;5053161;28;20056;-76
2021/11/19 10:59:41;;;;;;;15.02;7.82;;;14.50;96.90;;;;;;5053454;28;20485;-76
2021/11/19 11:02:15;;;;;;;15.82;8.25;;;14.50;96.70;;;;;;5053932;28;20032;-76
2021/11/19 11:04:51;;;;;;;14.50;7.50;;;14.60;96.50;;;;;;5052082;28;20048;-76
2021/11/19 11:07:30;;;;;;;14.32;8.27;;;14.60;96.40;;;;;;5053748;28;20078;-76
2021/11/19 11:09:59;;;;;;;12.93;7.05;;;14.70;96.30;;;;;;5052201;28;20032;-76
2021/11/19 11:12:43;;;;;;;13.50;6.57;;;14.80;96.30;;;;;;5053197;28;20025;-76
2021/11/19 11:15:18;;;;;;;15.63;6.95;;;14.90;95.80;;;;;;5053641;28;20018;-76
2021/11/19 11:18:23;;;;;;;14.65;7.22;;;14.90;95.30;;;;;;5053679;28;20026;-76
2021/11/19 11:20:52;;;;;;;15.40;7.53;;;14.90;95.10;;;;;;5052909;28;20035;-76
2021/11/19 11:23:32;;;;;;;13.65;7.15;;;14.80;94.70;;;;;;5052959;28;20406;-76
2021/11/19 11:26:25;;;;;;;14.27;6.72;;;14.70;94.80;;;;;;5053022;28;20029;-76
2021/11/19 11:28:55;;;;;;;19.27;8.13;;;14.60;94.80;;;;;;5052940;28;20457;-76
2021/11/19 11:31:46;;;;;;;15.02;8.00;;;14.40;94.70;;;;;;5051852;28;20025;-75
2021/11/19 11:34:24;;;;;;;14.23;7.63;;;14.30;94.90;;;;;;5042653;28;20025;-76
2021/11/19 11:37:08;;;;;;;16.20;8.55;;;14.20;95.00;;;;;;5051564;28;20048;-76
2021/11/19 11:39:36;;;;;;;15.55;8.32;;;14.10;95.10;;;;;;5051778;28;20047;-76
2021/11/19 11:42:10;;;;;;;18.25;9.20;;;14.00;95.20;;;;;;5053038;28;20082;-76
2021/11/19 11:44:46;;;;;;;14.20;8.27;;;13.90;95.10;;;;;;5052813;28;20362;-77
2021/11/19 11:47:56;;;;;;;14.98;8.90;;;14.00;95.20;;;;;;5051705;28;20032;-76
2021/11/19 11:50:32;;;;;;;15.02;8.65;;;13.90;95.10;;;;;;5048445;28;20021;-75
2021/11/19 11:53:01;;;;;;;13.63;8.13;;;14.00;95.50;;;;;;5047999;28;20028;-76
2021/11/19 11:55:30;;;;;;;14.70;7.68;;;14.10;95.00;;;;;;5056116;28;20056;-76
2021/11/19 11:58:03;;;;;;;13.10;6.20;;;14.40;95.80;;;;;;5037197;28;20033;-77
2021/11/19 12:00:35;;;;;;;11.50;5.70;;;15.10;96.70;;;;;;5046940;28;20072;-77
2021/11/19 12:03:13;;;;;;;10.27;3.92;;;16.00;96.00;;;;;;5055836;28;20374;-77
2021/11/19 12:05:54;;;;;;;11.00;4.55;;;16.70;94.30;;;;;;5055676;28;20092;-77
2021/11/19 12:08:47;;;;;;;11.48;3.72;;;16.90;91.70;;;;;;5054679;28;20530;-77
2021/11/19 12:11:28;;;;;;;10.20;4.30;;;16.80;90.90;;;;;;5057263;28;20048;-77
2021/11/19 12:14:12;;;;;;;6.15;3.67;;;16.80;90.30;;;;;;5057176;28;20025;-77
2021/11/19 12:17:04;;;;;;;9.45;3.50;;;16.80;90.50;;;;;;5056963;28;20033;-77
2021/11/19 12:20:03;;;;;;;10.88;4.40;;;16.70;89.90;;;;;;5056661;28;20044;-76
2021/11/19 12:22:47;;;;;;;8.45;5.00;;;16.50;89.30;;;;;;5056622;28;20032;-76
2021/11/19 12:25:31;;;;;;;10.15;4.75;;;16.20;88.90;;;;;;5056712;28;20033;-77
2021/11/19 12:27:59;;;;;;;8.93;4.80;;;15.90;88.50;;;;;;5057168;28;20056;-76
2021/11/19 12:30:35;;;;;;;7.00;4.35;;;15.70;89.10;;;;;;5056824;28;20028;-76
2021/11/19 12:33:20;;;;;;;8.95;4.43;;;15.40;89.50;;;;;;5056615;28;20582;-77
2021/11/19 12:36:10;;;;;;;11.32;5.20;;;15.20;90.00;;;;;;5054964;28;20025;-77
2021/11/19 12:38:40;;;;;;;8.18;5.05;;;14.90;90.40;;;;;;5056237;28;20041;-76
2021/11/19 12:41:10;;;;;;;10.77;5.00;;;14.80;91.10;;;;;;5056624;28;20048;-77
2021/11/19 12:44:12;;;;;;;9.50;4.80;;;14.70;91.10;;;;;;5056394;28;20033;-76
2021/11/19 12:46:50;;;;;;;11.13;4.32;;;14.70;91.30;;;;;;5056207;28;20469;-77
2021/11/19 12:50:11;;;;;;;10.93;4.70;;;14.60;91.60;;;;;;5054798;28;20116;-76
2021/11/19 12:53:18;;;;;;;12.13;4.75;;;14.60;91.60;;;;;;5013746;28;20033;-76
2021/11/19 12:56:22;;;;;;;9.40;3.88;;;14.50;91.90;;;;;;5036190;28;20404;-77